Strona główna
METAR-TAF:

METAR-TAF

Lotnisko :

Nowy port lotniczy Sapporo-Chitose

Chitose, Japonia

Szerokość geograficzna: 42-48N, Długość geograficzna: 141-40E, wysokość: 27 m

Aktualna obserwacja pogody

Raport powstał 26 minut temu, godzina 20:30 UTC
Wiatr 4 kt od południowy wschód
Temperatura 16°C
Wilgotność 100%
Ciśnienie 1012 hPa
Widzialność 10 km lub więcej
Mało chmury na wysokości 1000 ft

METAR: RJCC 192030Z 13004KT 9999 FEW010 16/16 Q1012 RMK 1ST010 A2991

czas: 05:56 (20:56 UTC)

Prognoza

Raport powstał 3 godziny i 51 minut temu, godzina 17:05 UTC
Prognoza ważna od 19 godzina 18 UTC do 21 godzina 00 UTC
Wiatr 5 kt od południowo-południowy wschód
Widzialność 10 km lub więcej
Mało chmury na wysokości 300 ft
Przerywane chmury na wysokości 1500 ft
Przejściowo
od 19 godzina 18 UTC do 19 godzina 21 UTC
Widzialność: 1500 m
Mało chmury na wysokości 100 ft
Przerywane chmury na wysokości 300 ft
zamglenie

TAF: RJCC 191705Z 1918/2100 16005KT 9999 FEW003 BKN015 TEMPO 1918/1921 1500 BR FEW001 BKN003

Obserwacja i prognoza pogody dla ponad 4000 lotnisk (raport METAR i TAF).

Dostępne stacje oznaczono żółtymi i czerwonymi punktami na mapie.

Najedź kursorem aby zobaczyć nazwę stacji.

Kliknij aby zobaczyć obserwacje i prognozy pogody.

Aby zmienić mapę: kliknij na zielony przycisk z czarnym krzyżykiem, aby powiększyć; na zielony przycisk z myślnikiem, aby pomniejszyć; na zielone strzałki, aby przejść do map sąsiednich.


METAR-TAF: